Strona główna
METAR-TAF:

METAR-TAF

Lotnisko :

Port lotniczy Duszanbe

Duszanbe, Tadżykistan

Szerokość geograficzna: 38-33N, Długość geograficzna: 068-47E, wysokość: 803 m

Aktualna obserwacja pogody

Raport powstał 10 minut temu, godzina 12:00 UTC
Wiatr 12 kt od zachodnio-północny zachód
Temperatura 35°C
Wilgotność 18%
Ciśnienie 1007 hPa
Widzialność 10 km lub więcej

METAR: UTDD 161200Z 29006MPS 9999 NSC 35/07 Q1007 R09/CLRD// TEMPO 28008MPS RMK QFE688/0917

czas: 17:10 (12:10 UTC)

Prognoza

Raport powstał 3 godziny i 10 minut temu, godzina 09:00 UTC
Prognoza ważna od 16 godzina 10 UTC do 16 godzina 22 UTC
Wiatr 4 kt z kierunków zmiennych
Widzialność: 6000 m
Przejściowo
od 16 godzina 10 UTC do 16 godzina 19 UTC
Wiatr 12 kt od zachód

TAF: UTDD 160900Z 1610/1622 VRB02MPS 6000 NSC TEMPO 1610/1619 27006MPS

Obserwacja i prognoza pogody dla ponad 4000 lotnisk (raport METAR i TAF).

Dostępne stacje oznaczono żółtymi i czerwonymi punktami na mapie.

Najedź kursorem aby zobaczyć nazwę stacji.

Kliknij aby zobaczyć obserwacje i prognozy pogody.

Aby zmienić mapę: kliknij na zielony przycisk z czarnym krzyżykiem, aby powiększyć; na zielony przycisk z myślnikiem, aby pomniejszyć; na zielone strzałki, aby przejść do map sąsiednich.


METAR-TAF: